createdAt,value
2023-03-03T00:00:33.698Z,7.00
2023-03-03T00:01:33.669Z,6.70
2023-03-03T00:02:33.668Z,7.30
2023-03-03T00:03:33.700Z,7.00
2023-03-03T00:04:33.630Z,7.00
2023-03-03T00:05:33.640Z,6.90
2023-03-03T00:06:33.610Z,7.00
2023-03-03T00:07:33.603Z,6.80
2023-03-03T00:08:33.613Z,6.70
2023-03-03T00:09:33.580Z,6.50
2023-03-03T00:10:33.592Z,6.90
2023-03-03T00:11:33.586Z,6.60
2023-03-03T00:12:33.546Z,6.40
2023-03-03T00:13:33.531Z,6.60
2023-03-03T00:14:33.553Z,6.70
2023-03-03T00:15:33.555Z,6.50
2023-03-03T00:16:33.498Z,6.60
2023-03-03T00:17:33.490Z,6.60
2023-03-03T00:18:33.499Z,6.60
2023-03-03T00:19:33.474Z,6.60
2023-03-03T00:20:33.461Z,6.80
2023-03-03T00:21:33.479Z,6.50
2023-03-03T00:22:33.528Z,6.80
2023-03-03T00:23:33.424Z,6.30
2023-03-03T00:24:33.434Z,6.40
2023-03-03T00:25:33.411Z,6.60
2023-03-03T00:26:33.385Z,6.60
2023-03-03T00:27:33.392Z,6.60
2023-03-03T00:28:33.360Z,6.50
2023-03-03T00:29:33.370Z,6.60
2023-03-03T00:30:33.343Z,6.90
2023-03-03T00:31:33.477Z,6.70
2023-03-03T00:32:33.337Z,6.70
2023-03-03T00:33:33.322Z,6.70
2023-03-03T00:34:33.307Z,6.80
2023-03-03T00:35:33.325Z,6.30
2023-03-03T00:36:33.279Z,6.40
2023-03-03T00:37:33.285Z,6.80
2023-03-03T00:38:33.348Z,6.30
2023-03-03T00:39:33.257Z,6.30
2023-03-03T00:40:33.273Z,6.80
2023-03-03T00:41:33.232Z,6.60
2023-03-03T00:42:33.230Z,6.50
2023-03-03T00:43:33.225Z,6.40
2023-03-03T00:44:33.197Z,6.30
2023-03-03T00:45:33.276Z,6.50
2023-03-03T00:46:33.211Z,6.50
2023-03-03T00:47:33.179Z,6.60
2023-03-03T00:48:33.144Z,6.60
2023-03-03T00:49:33.139Z,6.40
2023-03-03T00:50:33.128Z,6.60
2023-03-03T00:51:33.138Z,6.30
2023-03-03T00:52:33.104Z,6.50
2023-03-03T00:53:33.098Z,6.50
2023-03-03T00:54:33.077Z,6.60
2023-03-03T00:55:33.075Z,6.40
2023-03-03T00:56:33.125Z,6.50
2023-03-03T00:57:33.058Z,6.30
2023-03-03T00:58:33.036Z,6.60
2023-03-03T00:59:33.050Z,6.60
2023-03-03T01:00:34.190Z,6.50
2023-03-03T01:01:33.060Z,6.40
2023-03-03T01:02:33.144Z,6.30
2023-03-03T01:03:32.987Z,6.40
2023-03-03T01:04:32.974Z,6.20
2023-03-03T01:05:32.999Z,6.40
2023-03-03T01:06:32.957Z,6.30
2023-03-03T01:07:32.943Z,6.20
2023-03-03T01:08:32.939Z,6.40
2023-03-03T01:09:32.925Z,6.30
2023-03-03T01:10:32.908Z,6.40
2023-03-03T01:11:32.910Z,6.20
2023-03-03T01:12:32.908Z,6.20
2023-03-03T01:13:32.888Z,6.30
2023-03-03T01:14:32.955Z,6.30
2023-03-03T01:15:32.905Z,6.30
2023-03-03T01:16:32.856Z,6.20
2023-03-03T01:17:32.836Z,6.30
2023-03-03T01:18:32.850Z,6.30
2023-03-03T01:19:32.815Z,6.40
2023-03-03T01:20:32.814Z,6.10
2023-03-03T01:21:32.808Z,6.20
2023-03-03T01:22:32.770Z,6.20
2023-03-03T01:23:32.768Z,6.30
2023-03-03T01:24:33.431Z,6.30
2023-03-03T01:25:32.744Z,6.30
2023-03-03T01:26:32.725Z,6.40
2023-03-03T01:27:32.726Z,6.30
2023-03-03T01:28:32.728Z,6.40
2023-03-03T01:29:32.745Z,6.50
2023-03-03T01:30:32.684Z,6.40
2023-03-03T01:31:32.747Z,6.50
2023-03-03T01:32:32.702Z,6.50
2023-03-03T01:33:32.661Z,6.40
2023-03-03T01:34:32.639Z,6.60
2023-03-03T01:35:32.651Z,6.70
2023-03-03T01:36:32.629Z,6.70
2023-03-03T01:37:32.611Z,6.60
2023-03-03T01:38:32.599Z,6.50
2023-03-03T01:39:32.592Z,6.70
2023-03-03T01:40:32.661Z,6.60
2023-03-03T01:41:32.569Z,6.50
2023-03-03T01:42:32.565Z,6.60
2023-03-03T01:43:32.556Z,6.80
2023-03-03T01:44:32.546Z,6.30
2023-03-03T01:45:32.570Z,6.60
2023-03-03T01:46:32.547Z,6.60
2023-03-03T01:47:32.494Z,6.40
2023-03-03T01:48:32.487Z,6.50
2023-03-03T01:49:32.481Z,6.40
2023-03-03T01:50:32.967Z,6.60
2023-03-03T01:51:32.463Z,6.50
2023-03-03T01:52:32.445Z,6.50
2023-03-03T01:53:32.432Z,6.70
2023-03-03T01:54:32.430Z,6.50
2023-03-03T01:55:32.413Z,6.50
2023-03-03T01:56:32.415Z,6.70
2023-03-03T01:57:32.391Z,6.30
2023-03-03T01:58:32.386Z,6.40
2023-03-03T01:59:32.397Z,6.50
2023-03-03T02:00:32.373Z,6.50
2023-03-03T02:01:32.434Z,6.30
2023-03-03T02:02:32.342Z,6.20
2023-03-03T02:03:32.338Z,6.20
2023-03-03T02:04:32.312Z,6.30
2023-03-03T02:05:32.323Z,6.20
2023-03-03T02:06:32.299Z,6.50
2023-03-03T02:07:32.279Z,6.30
2023-03-03T02:08:32.276Z,6.30
2023-03-03T02:09:32.260Z,6.10
2023-03-03T02:10:32.246Z,6.10
2023-03-03T02:11:32.267Z,6.20
2023-03-03T02:12:32.230Z,6.10
2023-03-03T02:13:32.213Z,6.40
2023-03-03T02:14:32.203Z,6.60
2023-03-03T02:15:32.204Z,6.30
2023-03-03T02:16:32.298Z,6.20
2023-03-03T02:17:32.194Z,6.40
2023-03-03T02:18:32.168Z,6.20
2023-03-03T02:19:32.174Z,6.40
2023-03-03T02:20:32.148Z,6.10
2023-03-03T02:21:32.132Z,6.00
2023-03-03T02:22:32.136Z,6.10
2023-03-03T02:23:32.106Z,6.40
2023-03-03T02:24:32.093Z,6.40
2023-03-03T02:25:32.085Z,6.40
2023-03-03T02:26:32.076Z,6.50
2023-03-03T02:27:32.093Z,6.40
2023-03-03T02:28:32.054Z,6.20
2023-03-03T02:29:32.041Z,6.20
2023-03-03T02:30:32.038Z,6.00
2023-03-03T02:31:32.044Z,6.30
2023-03-03T02:32:32.076Z,6.30
2023-03-03T02:33:32.014Z,6.00
2023-03-03T02:34:31.992Z,6.10
2023-03-03T02:35:32.212Z,6.10
2023-03-03T02:36:31.986Z,6.10
2023-03-03T02:37:31.974Z,6.20
2023-03-03T02:38:31.958Z,6.10
2023-03-03T02:39:31.939Z,6.10
2023-03-03T02:40:31.925Z,6.10
2023-03-03T02:41:31.917Z,6.20
2023-03-03T02:42:31.930Z,6.10
2023-03-03T02:43:31.893Z,6.40
2023-03-03T02:44:31.902Z,6.40
2023-03-03T02:45:31.933Z,6.00
2023-03-03T02:46:31.870Z,6.10
2023-03-03T02:47:31.847Z,6.30
2023-03-03T02:48:31.862Z,6.10
2023-03-03T02:49:31.823Z,6.20
2023-03-03T02:50:31.823Z,6.40
2023-03-03T02:51:31.812Z,6.20
2023-03-03T02:52:31.792Z,6.20
2023-03-03T02:53:31.806Z,6.30
2023-03-03T02:54:31.804Z,6.30
2023-03-03T02:55:31.755Z,6.30
2023-03-03T02:56:31.751Z,6.30
2023-03-03T02:57:31.733Z,6.80
2023-03-03T02:58:31.739Z,6.60
2023-03-03T02:59:31.713Z,6.60
2023-03-03T03:00:31.736Z,6.50
2023-03-03T03:01:31.707Z,6.50
2023-03-03T03:02:31.678Z,6.60
2023-03-03T03:03:31.684Z,6.50
2023-03-03T03:04:31.827Z,6.50
2023-03-03T03:05:31.647Z,6.60
2023-03-03T03:06:31.635Z,6.50
2023-03-03T03:07:31.623Z,6.80
2023-03-03T03:08:31.629Z,6.40
2023-03-03T03:09:31.602Z,6.50
2023-03-03T03:10:31.609Z,6.40
2023-03-03T03:11:31.585Z,6.50
2023-03-03T03:12:31.573Z,6.80
2023-03-03T03:13:31.781Z,6.60
2023-03-03T03:14:31.552Z,6.70
2023-03-03T03:15:31.533Z,6.40
2023-03-03T03:16:31.584Z,6.70
2023-03-03T03:17:31.513Z,6.70
2023-03-03T03:18:31.516Z,6.30
2023-03-03T03:19:31.505Z,6.60
2023-03-03T03:20:31.498Z,7.00
2023-03-03T03:21:31.464Z,6.80
2023-03-03T03:22:31.456Z,6.60
2023-03-03T03:23:31.459Z,6.60
2023-03-03T03:24:31.461Z,6.60
2023-03-03T03:25:31.429Z,6.50
2023-03-03T03:26:31.410Z,6.30
2023-03-03T03:27:31.405Z,6.20
2023-03-03T03:28:31.452Z,6.50
2023-03-03T03:29:31.395Z,6.30
2023-03-03T03:30:31.404Z,6.30
2023-03-03T03:31:31.359Z,7.30
2023-03-03T03:32:31.442Z,6.30
2023-03-03T03:33:31.362Z,6.40
2023-03-03T03:34:31.327Z,6.50
2023-03-03T03:35:31.342Z,6.70
2023-03-03T03:36:31.325Z,7.00
2023-03-03T03:37:31.295Z,6.80
2023-03-03T03:38:31.322Z,6.70
2023-03-03T03:39:31.271Z,6.60
2023-03-03T03:40:31.271Z,6.70
2023-03-03T03:41:31.249Z,7.00
2023-03-03T03:42:31.261Z,6.90
2023-03-03T03:43:31.227Z,7.00
2023-03-03T03:44:31.255Z,7.10
2023-03-03T03:45:31.206Z,6.80
2023-03-03T03:46:31.210Z,7.00
2023-03-03T03:47:31.198Z,6.70
2023-03-03T03:48:31.169Z,6.80
2023-03-03T03:49:31.164Z,7.00
2023-03-03T03:50:31.155Z,7.10
2023-03-03T03:51:31.142Z,7.20
2023-03-03T03:52:31.184Z,6.80
2023-03-03T03:53:31.136Z,6.70
2023-03-03T03:54:31.291Z,7.00
2023-03-03T03:55:31.096Z,6.90
2023-03-03T03:56:31.116Z,6.50
2023-03-03T03:57:31.096Z,6.70
2023-03-03T03:58:31.072Z,6.50
2023-03-03T03:59:31.065Z,6.90
2023-03-03T04:00:31.048Z,6.50
2023-03-03T04:01:31.198Z,6.80
2023-03-03T04:02:31.109Z,6.60
2023-03-03T04:03:31.117Z,6.90
2023-03-03T04:04:30.998Z,7.00
2023-03-03T04:05:30.984Z,7.20
2023-03-03T04:06:30.980Z,6.60
2023-03-03T04:07:30.987Z,6.70
2023-03-03T04:08:30.976Z,6.50
2023-03-03T04:09:30.995Z,6.90
2023-03-03T04:10:30.940Z,6.30
2023-03-03T04:11:30.929Z,6.40
2023-03-03T04:12:30.932Z,6.40
2023-03-03T04:13:30.913Z,6.50
2023-03-03T04:14:30.941Z,6.70
2023-03-03T04:15:30.943Z,6.90
2023-03-03T04:16:30.875Z,6.80
2023-03-03T04:17:30.878Z,6.70
2023-03-03T04:18:30.863Z,6.80
2023-03-03T04:19:30.863Z,6.80
2023-03-03T04:20:30.835Z,6.40
2023-03-03T04:21:30.849Z,7.40
2023-03-03T04:22:30.807Z,7.00
2023-03-03T04:23:30.914Z,6.30
2023-03-03T04:24:30.813Z,6.90
2023-03-03T04:25:30.774Z,6.70
2023-03-03T04:26:30.765Z,6.40
2023-03-03T04:27:30.775Z,6.80
2023-03-03T04:28:30.751Z,6.70
2023-03-03T04:29:30.763Z,6.90
2023-03-03T04:30:30.729Z,7.20
2023-03-03T04:31:30.715Z,7.00
2023-03-03T04:32:30.765Z,6.70
2023-03-03T04:33:30.738Z,6.80
2023-03-03T04:34:30.706Z,7.20
2023-03-03T04:35:30.693Z,7.40
2023-03-03T04:36:30.663Z,6.80
2023-03-03T04:37:30.648Z,7.10
2023-03-03T04:38:30.637Z,7.10
2023-03-03T04:39:30.634Z,6.80
2023-03-03T04:40:30.645Z,6.90
2023-03-03T04:41:30.606Z,7.50
2023-03-03T04:42:30.593Z,6.50
2023-03-03T04:43:30.609Z,6.80
2023-03-03T04:44:30.572Z,6.50
2023-03-03T04:45:30.559Z,6.80
2023-03-03T04:46:30.704Z,6.70
2023-03-03T04:47:30.536Z,7.10
2023-03-03T04:48:30.545Z,6.90
2023-03-03T04:49:30.546Z,7.60
2023-03-03T04:50:30.504Z,7.10
2023-03-03T04:51:30.491Z,7.30
2023-03-03T04:52:30.485Z,6.50
2023-03-03T04:53:30.476Z,6.90
2023-03-03T04:54:30.458Z,7.50
2023-03-03T04:55:30.460Z,7.60
2023-03-03T04:56:30.462Z,7.20
2023-03-03T04:57:30.428Z,7.00
2023-03-03T04:58:30.482Z,7.20
2023-03-03T04:59:30.406Z,7.20
2023-03-03T05:00:30.394Z,7.30
2023-03-03T05:01:30.422Z,7.70
2023-03-03T05:02:30.368Z,6.60
2023-03-03T05:03:30.373Z,7.90
2023-03-03T05:04:30.370Z,7.40
2023-03-03T05:05:30.335Z,7.90
2023-03-03T05:06:30.328Z,7.30
2023-03-03T05:07:30.317Z,7.40
2023-03-03T05:08:30.316Z,7.60
2023-03-03T05:09:30.296Z,7.00
2023-03-03T05:10:30.286Z,7.30
2023-03-03T05:11:30.288Z,7.20
2023-03-03T05:12:30.274Z,7.60
2023-03-03T05:13:30.258Z,7.10
2023-03-03T05:14:30.235Z,7.30
2023-03-03T05:15:30.294Z,7.60
2023-03-03T05:16:30.299Z,8.30
2023-03-03T05:17:30.305Z,7.80
2023-03-03T05:18:30.192Z,7.70
2023-03-03T05:19:30.191Z,3.10
2023-03-03T05:20:30.178Z,1.70
2023-03-03T05:21:30.170Z,6.90
2023-03-03T05:22:30.145Z,8.20
2023-03-03T05:23:30.130Z,8.70
2023-03-03T05:24:30.124Z,9.70
2023-03-03T05:25:30.131Z,10.00
2023-03-03T05:26:30.110Z,9.20
2023-03-03T05:27:30.088Z,9.00
2023-03-03T05:28:30.124Z,8.80
2023-03-03T05:29:30.069Z,10.10
2023-03-03T05:30:30.054Z,9.00
2023-03-03T05:31:30.147Z,7.50
2023-03-03T05:32:30.128Z,2.80
2023-03-03T05:33:30.025Z,5.30
2023-03-03T05:34:30.015Z,5.20
2023-03-03T05:35:30.067Z,6.90
2023-03-03T05:36:30.108Z,7.20
2023-03-03T05:37:29.978Z,7.20
2023-03-03T05:38:29.964Z,5.20
2023-03-03T05:39:29.957Z,9.10
2023-03-03T05:40:29.978Z,8.00
2023-03-03T05:41:29.939Z,7.80
2023-03-03T05:42:29.940Z,10.60
2023-03-03T05:43:29.911Z,9.30
2023-03-03T05:44:29.941Z,8.50
2023-03-03T05:45:29.929Z,1.60
2023-03-03T05:46:29.898Z,7.20
2023-03-03T05:47:29.870Z,5.80
2023-03-03T05:48:29.868Z,7.70
2023-03-03T05:49:29.841Z,10.00
2023-03-03T05:50:29.833Z,7.10
2023-03-03T05:51:29.839Z,7.00
2023-03-03T05:52:29.817Z,5.90
2023-03-03T05:53:29.804Z,6.60
2023-03-03T05:54:29.799Z,8.10
2023-03-03T05:55:29.803Z,8.10
2023-03-03T05:56:29.788Z,7.60
2023-03-03T05:57:29.773Z,7.90
2023-03-03T05:58:29.857Z,7.40
2023-03-03T05:59:29.751Z,7.10
2023-03-03T06:00:29.776Z,7.20
2023-03-03T06:01:29.783Z,7.30
2023-03-03T06:02:29.709Z,7.60
2023-03-03T06:03:29.694Z,7.00
2023-03-03T06:04:29.718Z,7.30
2023-03-03T06:05:29.673Z,7.70
2023-03-03T06:06:29.688Z,7.80
2023-03-03T06:07:29.651Z,8.10
2023-03-03T06:08:29.689Z,8.00
2023-03-03T06:09:29.638Z,7.40
2023-03-03T06:10:29.654Z,8.20
2023-03-03T06:11:29.609Z,7.70
2023-03-03T06:12:29.600Z,8.60
2023-03-03T06:13:29.606Z,8.70
2023-03-03T06:14:29.608Z,8.80
2023-03-03T06:15:29.694Z,9.00
2023-03-03T06:16:29.694Z,8.50
2023-03-03T06:18:31.394Z,7.60
2023-03-03T06:19:31.395Z,7.70
2023-03-03T06:20:31.363Z,7.70
2023-03-03T06:21:31.355Z,8.60
2023-03-03T06:22:31.376Z,8.30
2023-03-03T06:23:31.338Z,7.80
2023-03-03T06:24:31.319Z,8.00
2023-03-03T06:25:31.316Z,8.10
2023-03-03T06:26:31.305Z,8.00
2023-03-03T06:27:31.299Z,7.50
2023-03-03T06:28:31.298Z,7.80
2023-03-03T06:29:31.269Z,7.50
2023-03-03T06:30:31.264Z,7.80
2023-03-03T06:31:31.263Z,7.70
2023-03-03T06:32:31.344Z,7.20
2023-03-03T06:33:31.237Z,6.00
2023-03-03T06:34:31.230Z,7.00
2023-03-03T06:35:31.311Z,5.10
2023-03-03T06:36:31.188Z,6.30
2023-03-03T06:37:31.178Z,6.60
2023-03-03T06:38:31.177Z,6.00
2023-03-03T06:39:31.186Z,5.30
2023-03-03T06:40:31.178Z,6.50
2023-03-03T06:41:31.131Z,6.20
2023-03-03T06:42:31.140Z,6.60
2023-03-03T06:43:31.113Z,7.20
2023-03-03T06:44:31.108Z,7.50
2023-03-03T06:45:31.146Z,9.90
2023-03-03T06:46:31.107Z,9.00
2023-03-03T06:47:31.098Z,6.80
2023-03-03T06:48:31.085Z,6.20
2023-03-03T06:49:31.048Z,5.70
2023-03-03T06:50:31.033Z,7.10
2023-03-03T06:51:31.073Z,7.60
2023-03-03T06:52:31.155Z,8.50
2023-03-03T06:53:31.008Z,8.30
2023-03-03T06:54:31.277Z,9.40
2023-03-03T06:55:30.979Z,9.60
2023-03-03T06:56:30.984Z,11.10
2023-03-03T06:57:30.962Z,9.20
2023-03-03T06:58:30.945Z,9.60
2023-03-03T06:59:30.952Z,9.40
2023-03-03T07:00:31.312Z,9.20
2023-03-03T07:01:30.934Z,8.40
2023-03-03T07:02:30.907Z,8.90
2023-03-03T07:03:30.893Z,8.80
2023-03-03T07:04:31.143Z,8.10
2023-03-03T07:05:30.894Z,8.80
2023-03-03T07:06:30.896Z,8.20
2023-03-03T07:07:30.872Z,8.90
2023-03-03T07:08:30.850Z,9.50
2023-03-03T07:09:30.850Z,8.90
2023-03-03T07:10:30.953Z,9.10
2023-03-03T07:11:30.833Z,9.10
2023-03-03T07:12:30.812Z,8.70
2023-03-03T07:13:30.797Z,8.70
2023-03-03T07:14:30.789Z,7.90
2023-03-03T07:15:30.782Z,9.10
2023-03-03T07:16:30.842Z,8.50
2023-03-03T07:17:30.785Z,8.80
2023-03-03T07:18:30.761Z,10.50
2023-03-03T07:19:30.733Z,7.60
2023-03-03T07:20:30.756Z,7.80
2023-03-03T07:21:30.718Z,8.20
2023-03-03T07:22:30.701Z,8.20
2023-03-03T07:23:30.695Z,8.10
2023-03-03T07:24:30.725Z,8.10
2023-03-03T07:25:30.679Z,8.70
2023-03-03T07:26:30.685Z,8.00
2023-03-03T07:27:30.657Z,8.20
2023-03-03T07:28:30.667Z,7.70
2023-03-03T07:29:30.693Z,7.80
2023-03-03T07:30:30.819Z,7.60
2023-03-03T07:31:30.622Z,7.10
2023-03-03T07:32:30.664Z,8.00
2023-03-03T07:33:30.604Z,7.60
2023-03-03T07:34:30.593Z,7.40
2023-03-03T07:35:30.671Z,7.70
2023-03-03T07:36:30.585Z,7.60
2023-03-03T07:37:30.620Z,7.50
2023-03-03T07:38:30.553Z,7.80
2023-03-03T07:39:30.537Z,8.70
2023-03-03T07:40:30.508Z,8.80
2023-03-03T07:41:30.502Z,8.10
2023-03-03T07:42:30.492Z,11.00
2023-03-03T07:43:30.511Z,9.20
2023-03-03T07:44:30.487Z,7.30
2023-03-03T07:45:30.457Z,7.30
2023-03-03T07:46:30.588Z,7.40
2023-03-03T07:47:30.455Z,8.50
2023-03-03T07:48:30.442Z,11.00
2023-03-03T07:49:30.418Z,8.60
2023-03-03T07:50:30.401Z,8.30
2023-03-03T07:51:30.395Z,8.20
2023-03-03T07:52:30.396Z,9.10
2023-03-03T07:53:30.388Z,9.40
2023-03-03T07:54:30.363Z,11.60
2023-03-03T07:55:30.364Z,9.80
2023-03-03T07:56:30.413Z,8.70
2023-03-03T07:57:30.325Z,8.20
2023-03-03T07:58:30.334Z,7.50
2023-03-03T07:59:30.321Z,8.10
2023-03-03T08:00:30.376Z,9.30
2023-03-03T08:01:30.284Z,9.70
2023-03-03T08:02:30.273Z,8.80
2023-03-03T08:03:30.267Z,13.40
2023-03-03T08:04:30.427Z,10.40
2023-03-03T08:05:30.342Z,8.30
2023-03-03T08:06:30.227Z,8.00
2023-03-03T08:07:30.217Z,8.70
2023-03-03T08:08:30.725Z,8.80
2023-03-03T08:09:30.215Z,9.00
2023-03-03T08:10:30.252Z,7.40
2023-03-03T08:11:30.171Z,8.30
2023-03-03T08:12:30.166Z,8.30
2023-03-03T08:13:30.251Z,8.30
2023-03-03T08:14:30.139Z,8.80
2023-03-03T08:15:30.337Z,8.30
2023-03-03T08:16:30.109Z,8.40
2023-03-03T08:17:30.107Z,8.30
2023-03-03T08:18:30.107Z,8.60
2023-03-03T08:19:30.078Z,9.40
2023-03-03T08:20:30.263Z,8.80
2023-03-03T08:21:30.045Z,8.20
2023-03-03T08:22:30.619Z,8.10
2023-03-03T08:23:30.044Z,7.10
2023-03-03T08:24:30.044Z,7.20
2023-03-03T08:25:30.020Z,7.90
2023-03-03T08:26:30.025Z,8.30
2023-03-03T08:27:29.988Z,8.80
2023-03-03T08:28:29.989Z,8.60
2023-03-03T08:29:29.958Z,8.80
2023-03-03T08:30:29.945Z,9.00
2023-03-03T08:31:40.826Z,9.00
2023-03-03T08:32:31.188Z,8.40
2023-03-03T08:33:29.925Z,8.30
2023-03-03T08:34:29.975Z,8.60
2023-03-03T08:35:29.927Z,9.00
2023-03-03T08:36:29.878Z,8.90
2023-03-03T08:37:29.866Z,8.40
2023-03-03T08:38:29.872Z,8.30
2023-03-03T08:39:29.859Z,8.10
2023-03-03T08:40:29.854Z,8.30
2023-03-03T08:41:29.837Z,8.00
2023-03-03T08:42:29.811Z,7.90
2023-03-03T08:43:29.824Z,8.10
2023-03-03T08:44:29.791Z,8.40
2023-03-03T08:45:29.779Z,8.60
2023-03-03T08:46:29.803Z,8.20
2023-03-03T08:47:29.763Z,8.70
2023-03-03T08:48:29.754Z,8.80
2023-03-03T08:49:29.752Z,8.80
2023-03-03T08:50:29.729Z,9.10
2023-03-03T08:51:29.740Z,9.00
2023-03-03T08:52:29.722Z,9.20
2023-03-03T08:53:29.726Z,8.60
2023-03-03T08:54:29.682Z,8.60
2023-03-03T08:55:29.678Z,8.90
2023-03-03T08:56:29.682Z,8.30
2023-03-03T08:57:29.737Z,8.90
2023-03-03T08:58:35.153Z,8.00
2023-03-03T08:59:30.647Z,8.70
2023-03-03T09:00:29.624Z,8.30
2023-03-03T09:01:29.691Z,8.20
2023-03-03T09:02:29.604Z,8.40
2023-03-03T09:03:29.595Z,8.00
2023-03-03T09:04:29.706Z,7.90
2023-03-03T09:05:29.561Z,8.60
2023-03-03T09:06:29.594Z,8.40
2023-03-03T09:07:30.126Z,8.70
2023-03-03T09:08:29.533Z,8.40
2023-03-03T09:09:29.543Z,8.70
2023-03-03T09:10:29.533Z,8.60
2023-03-03T09:11:29.508Z,9.10
2023-03-03T09:12:29.503Z,8.70
2023-03-03T09:13:29.484Z,8.70
2023-03-03T09:14:29.467Z,8.50
2023-03-03T09:15:29.478Z,8.90
2023-03-03T09:16:29.507Z,8.40
2023-03-03T09:17:29.595Z,8.90
2023-03-03T09:18:29.423Z,8.60
2023-03-03T09:19:29.487Z,8.60
2023-03-03T09:20:29.404Z,8.30
2023-03-03T09:21:29.392Z,8.40
2023-03-03T09:22:29.381Z,8.40
2023-03-03T09:23:29.368Z,8.10
2023-03-03T09:24:29.431Z,8.00
2023-03-03T09:25:29.344Z,8.70
2023-03-03T09:26:29.409Z,7.80
2023-03-03T09:27:29.323Z,8.30
2023-03-03T09:28:29.332Z,7.90
2023-03-03T09:29:29.424Z,8.40
2023-03-03T09:30:29.318Z,8.70
2023-03-03T09:31:29.307Z,8.10
2023-03-03T09:32:29.312Z,8.90
2023-03-03T09:33:29.264Z,8.00
2023-03-03T09:34:29.261Z,8.30
2023-03-03T09:35:29.293Z,8.40
2023-03-03T09:36:29.438Z,8.40
2023-03-03T09:37:29.214Z,8.10
2023-03-03T09:38:29.256Z,8.90
2023-03-03T09:39:29.218Z,8.10
2023-03-03T09:40:29.182Z,8.30
2023-03-03T09:41:29.176Z,8.30
2023-03-03T09:42:29.166Z,8.30
2023-03-03T09:43:29.152Z,8.20
2023-03-03T09:44:29.154Z,8.10
2023-03-03T09:45:29.147Z,8.30
2023-03-03T09:46:29.190Z,7.70
2023-03-03T09:47:29.108Z,7.70
2023-03-03T09:48:29.093Z,7.50
2023-03-03T09:49:29.102Z,8.00
2023-03-03T09:50:29.194Z,8.00
2023-03-03T09:51:29.083Z,8.20
2023-03-03T09:52:29.047Z,7.90
2023-03-03T09:53:29.048Z,7.90
2023-03-03T09:54:29.045Z,8.30
2023-03-03T09:55:29.016Z,8.80
2023-03-03T09:56:29.023Z,8.20
2023-03-03T09:57:29.019Z,8.60
2023-03-03T09:58:28.985Z,9.10
2023-03-03T09:59:28.992Z,9.00
2023-03-03T10:00:29.005Z,8.70
2023-03-03T10:01:28.964Z,8.60
2023-03-03T10:02:28.942Z,8.70
2023-03-03T10:03:28.976Z,9.00
2023-03-03T10:04:28.959Z,8.40
2023-03-03T10:05:28.922Z,9.10
2023-03-03T10:06:28.904Z,8.20
2023-03-03T10:07:29.634Z,8.50
2023-03-03T10:08:31.202Z,8.60
2023-03-03T10:09:29.167Z,8.70
2023-03-03T10:10:28.853Z,8.70
2023-03-03T10:11:28.843Z,8.80
2023-03-03T10:12:28.829Z,8.80
2023-03-03T10:13:28.824Z,8.30
2023-03-03T10:14:29.158Z,8.80
2023-03-03T10:15:28.833Z,9.20
2023-03-03T10:16:28.854Z,8.70
2023-03-03T10:17:28.779Z,8.80
2023-03-03T10:18:28.790Z,8.80
2023-03-03T10:19:28.773Z,8.90
2023-03-03T10:20:34.787Z,8.70
2023-03-03T10:21:29.725Z,8.60
2023-03-03T10:22:28.769Z,8.90
2023-03-03T10:23:28.730Z,8.70
2023-03-03T10:24:28.709Z,8.60
2023-03-03T10:25:28.690Z,9.10
2023-03-03T10:26:42.146Z,8.80
2023-03-03T10:27:29.665Z,8.60
2023-03-03T10:28:28.659Z,8.30
2023-03-03T10:29:30.726Z,8.90
2023-03-03T10:30:39.864Z,8.90
2023-03-03T10:31:29.728Z,9.30
2023-03-03T10:32:28.835Z,8.90
2023-03-03T10:33:28.900Z,8.90
2023-03-03T10:34:28.588Z,8.90
2023-03-03T10:35:28.608Z,8.70
2023-03-03T10:36:30.466Z,7.90
2023-03-03T10:37:28.581Z,7.90
2023-03-03T10:38:28.547Z,8.00
2023-03-03T10:39:28.544Z,8.20
2023-03-03T10:40:28.636Z,8.30
2023-03-03T10:41:28.516Z,8.50
2023-03-03T10:42:28.690Z,8.70
2023-03-03T10:43:32.250Z,8.40
2023-03-03T10:44:28.480Z,8.40
2023-03-03T10:45:28.527Z,8.30
2023-03-03T10:46:28.472Z,8.60
2023-03-03T10:47:28.642Z,8.50
2023-03-03T10:48:28.480Z,8.10
2023-03-03T10:49:28.444Z,8.40
2023-03-03T10:50:28.425Z,7.70
2023-03-03T10:51:28.408Z,8.00
2023-03-03T10:52:28.442Z,8.30
2023-03-03T10:53:28.394Z,7.90
2023-03-03T10:54:28.452Z,8.60
2023-03-03T10:55:28.355Z,8.30
2023-03-03T10:56:28.345Z,8.90
2023-03-03T10:57:28.356Z,8.60
2023-03-03T10:58:28.425Z,8.60
2023-03-03T10:59:29.292Z,8.30
2023-03-03T11:00:28.303Z,7.90
2023-03-03T11:01:28.446Z,7.90
2023-03-03T11:02:28.349Z,7.80
2023-03-03T11:03:28.282Z,8.20
2023-03-03T11:04:28.331Z,8.60
2023-03-03T11:05:28.246Z,8.90
2023-03-03T11:06:28.362Z,8.90
2023-03-03T11:07:28.227Z,8.60
2023-03-03T11:08:28.383Z,8.40
2023-03-03T11:09:28.204Z,8.80
2023-03-03T11:10:28.214Z,8.80
2023-03-03T11:11:28.180Z,9.00
2023-03-03T11:12:28.177Z,9.40
2023-03-03T11:13:28.174Z,8.80
2023-03-03T11:14:28.183Z,8.90
2023-03-03T11:15:28.143Z,9.00
2023-03-03T11:16:28.264Z,8.60
2023-03-03T11:17:28.127Z,8.80
2023-03-03T11:18:28.104Z,8.60
2023-03-03T11:19:28.179Z,8.20
2023-03-03T11:20:28.105Z,8.40
2023-03-03T11:21:28.086Z,7.70
2023-03-03T11:22:28.075Z,8.20
2023-03-03T11:23:28.048Z,8.30
2023-03-03T11:24:28.220Z,8.60
2023-03-03T11:25:28.028Z,9.10
2023-03-03T11:26:28.034Z,8.60
2023-03-03T11:27:28.004Z,8.20
2023-03-03T11:28:27.995Z,8.40
2023-03-03T11:29:28.014Z,8.10
2023-03-03T11:30:28.614Z,7.90
2023-03-03T11:31:30.015Z,8.40
2023-03-03T11:32:27.975Z,8.40
2023-03-03T11:33:27.946Z,8.40
2023-03-03T11:34:27.932Z,8.30
2023-03-03T11:35:27.970Z,8.00
2023-03-03T11:36:27.938Z,7.90
2023-03-03T11:37:27.894Z,7.90
2023-03-03T11:38:27.891Z,8.30
2023-03-03T11:39:27.874Z,8.30
2023-03-03T11:40:27.866Z,8.70
2023-03-03T11:41:27.876Z,8.10
2023-03-03T11:42:27.838Z,8.30
2023-03-03T11:43:36.517Z,8.00
2023-03-03T11:44:28.830Z,8.40
2023-03-03T11:45:27.826Z,8.20
2023-03-03T11:46:27.820Z,8.80
2023-03-03T11:47:29.708Z,8.40
2023-03-03T11:48:27.775Z,8.50
2023-03-03T11:49:27.770Z,8.20
2023-03-03T11:50:27.757Z,8.80
2023-03-03T11:51:28.218Z,8.80
2023-03-03T11:52:27.767Z,8.00
2023-03-03T11:53:27.725Z,7.90
2023-03-03T11:54:27.710Z,8.00
2023-03-03T11:55:27.705Z,7.80
2023-03-03T11:56:27.686Z,8.10
2023-03-03T11:57:27.691Z,8.20
2023-03-03T11:58:27.669Z,8.10
2023-03-03T11:59:27.656Z,8.30
2023-03-03T12:00:27.640Z,8.50
2023-03-03T12:01:27.803Z,8.30
2023-03-03T12:02:27.669Z,8.60
2023-03-03T12:03:27.654Z,7.80
2023-03-03T12:04:27.597Z,8.30
2023-03-03T12:05:27.598Z,8.10
2023-03-03T12:06:27.575Z,8.30
2023-03-03T12:07:27.577Z,8.70
2023-03-03T12:08:27.570Z,8.70
2023-03-03T12:09:27.539Z,8.80
2023-03-03T12:10:27.531Z,8.80
2023-03-03T12:11:27.551Z,8.70
2023-03-03T12:12:27.540Z,9.30
2023-03-03T12:13:27.497Z,8.80
2023-03-03T12:14:27.481Z,8.70
2023-03-03T12:15:27.511Z,8.70
2023-03-03T12:16:27.463Z,9.10
2023-03-03T12:17:27.448Z,8.70
2023-03-03T12:18:34.506Z,9.20
2023-03-03T12:19:27.439Z,9.00
2023-03-03T12:20:27.487Z,8.90
2023-03-03T12:21:27.437Z,8.70
2023-03-03T12:22:27.518Z,8.70
2023-03-03T12:23:27.387Z,8.70
2023-03-03T12:24:27.406Z,8.90
2023-03-03T12:25:27.368Z,8.30
2023-03-03T12:26:27.367Z,8.70
2023-03-03T12:27:27.342Z,8.60
2023-03-03T12:28:27.330Z,9.20
2023-03-03T12:29:27.333Z,9.30
2023-03-03T12:30:27.320Z,8.70
2023-03-03T12:31:27.363Z,8.90
2023-03-03T12:32:27.375Z,8.80
2023-03-03T12:33:27.293Z,8.20
2023-03-03T12:34:27.268Z,8.10
2023-03-03T12:35:27.269Z,8.30
2023-03-03T12:36:27.259Z,8.70
2023-03-03T12:37:27.259Z,8.30
2023-03-03T12:38:27.275Z,8.40
2023-03-03T12:39:34.704Z,8.70
2023-03-03T12:40:28.215Z,8.30
2023-03-03T12:41:27.453Z,8.70
2023-03-03T12:42:27.197Z,8.60
2023-03-03T12:43:27.169Z,7.90
2023-03-03T12:44:27.158Z,8.20
2023-03-03T12:45:27.152Z,8.60
2023-03-03T12:46:28.952Z,8.30
2023-03-03T12:47:27.121Z,8.70
2023-03-03T12:48:27.115Z,9.00
2023-03-03T12:49:28.199Z,9.10
2023-03-03T12:50:27.115Z,9.00
2023-03-03T12:51:27.091Z,8.70
2023-03-03T12:52:27.071Z,9.10
2023-03-03T12:53:27.070Z,8.30
2023-03-03T12:54:27.050Z,8.60
2023-03-03T12:55:27.039Z,8.80
2023-03-03T12:56:27.282Z,8.80
2023-03-03T12:57:27.016Z,8.60
2023-03-03T12:58:27.005Z,8.60
2023-03-03T12:59:27.000Z,8.30
2023-03-03T13:00:27.056Z,8.40
2023-03-03T13:01:26.999Z,8.60
2023-03-03T13:02:26.962Z,8.40
2023-03-03T13:03:31.891Z,8.40
2023-03-03T13:04:28.031Z,8.10
2023-03-03T13:05:26.924Z,8.90
2023-03-03T13:06:26.939Z,8.70
2023-03-03T13:07:26.902Z,9.10
2023-03-03T13:08:26.925Z,8.70
2023-03-03T13:09:26.881Z,8.70
2023-03-03T13:10:26.965Z,9.00
2023-03-03T13:11:26.873Z,8.70
2023-03-03T13:12:26.886Z,8.40
2023-03-03T13:13:26.839Z,8.70
2023-03-03T13:14:26.830Z,9.00
2023-03-03T13:15:32.252Z,9.00
2023-03-03T13:16:40.268Z,8.80
2023-03-03T13:17:27.850Z,9.00
2023-03-03T13:18:26.787Z,8.80
2023-03-03T13:19:26.777Z,8.60